Time;durP1;ratioP1;P1;durP2;ratioP2;P2;SDS_P1;SDS_P2;PMS_P1;PMS_P2;Temp;Humidity;BMP_temperature;BMP_pressure;BME280_temperature;BME280_humidity;BME280_pressure;Samples;Min_cycle;Max_cycle;Signal;HPM_P1;HPM_P2
2021/10/22 00:02:02;;;;;;;16.10;9.45;;;16.10;99.90;;;;;;5070576;28;20035;-50
2021/10/22 00:04:28;;;;;;;11.68;8.10;;;15.80;99.90;;;;;;5071168;28;20025;-52
2021/10/22 00:06:53;;;;;;;11.02;8.52;;;15.50;99.90;;;;;;5071822;28;20598;-50
2021/10/22 00:09:19;;;;;;;12.95;9.27;;;15.40;99.90;;;;;;5071663;28;20109;-52
2021/10/22 00:11:45;;;;;;;12.30;7.68;;;15.40;99.90;;;;;;5072955;28;20103;-53
2021/10/22 00:14:13;;;;;;;9.88;6.30;;;15.50;99.90;;;;;;5053645;28;20032;-50
2021/10/22 00:16:40;;;;;;;11.15;7.78;;;15.60;99.90;;;;;;5067506;28;20418;-51
2021/10/22 00:19:06;;;;;;;9.32;7.18;;;15.70;99.90;;;;;;5053149;28;20059;-52
2021/10/22 00:21:32;;;;;;;11.13;6.97;;;15.70;99.90;;;;;;5072278;28;20028;-51
2021/10/22 00:23:58;;;;;;;9.77;6.47;;;15.70;99.90;;;;;;5071813;28;20031;-50
2021/10/22 00:26:23;;;;;;;8.15;7.00;;;15.80;99.90;;;;;;5072325;28;20472;-50
2021/10/22 00:28:49;;;;;;;11.25;7.43;;;15.70;99.90;;;;;;5072322;28;20020;-49
2021/10/22 00:31:16;;;;;;;11.18;7.55;;;15.90;99.90;;;;;;5071445;28;20024;-51
2021/10/22 00:33:41;;;;;;;9.48;6.80;;;15.90;99.90;;;;;;5070417;28;20048;-51
2021/10/22 00:36:07;;;;;;;10.60;7.28;;;16.00;99.90;;;;;;5071522;28;20391;-50
2021/10/22 00:38:33;;;;;;;8.00;6.25;;;16.10;99.90;;;;;;5049036;28;20049;-52
2021/10/22 00:41:00;;;;;;;7.65;5.97;;;16.10;99.90;;;;;;5071341;28;20078;-50
2021/10/22 00:43:29;;;;;;;10.45;6.55;;;16.10;99.90;;;;;;5076331;28;20372;-52
2021/10/22 00:45:55;;;;;;;11.50;6.35;;;16.10;99.90;;;;;;5075290;28;20035;-51
2021/10/22 00:48:21;;;;;;;7.70;5.53;;;16.00;99.90;;;;;;5075292;28;20032;-52
2021/10/22 00:50:51;;;;;;;10.10;6.10;;;16.00;99.90;;;;;;5074567;28;20393;-52
2021/10/22 00:53:18;;;;;;;8.68;6.38;;;16.00;99.90;;;;;;5075553;28;20036;-50
2021/10/22 00:55:44;;;;;;;9.82;5.88;;;16.10;99.90;;;;;;5075480;28;20090;-53
2021/10/22 00:58:11;;;;;;;9.65;5.18;;;16.20;99.90;;;;;;5056231;28;20447;-53
2021/10/22 01:00:37;;;;;;;7.95;5.43;;;16.30;99.80;;;;;;5076180;28;20099;-53
2021/10/22 01:03:07;;;;;;;7.35;5.38;;;16.40;99.90;;;;;;5074556;28;20028;-50
2021/10/22 01:05:33;;;;;;;10.35;6.60;;;16.50;99.90;;;;;;5075162;28;20048;-51
2021/10/22 01:08:00;;;;;;;7.03;5.43;;;16.60;99.90;;;;;;5075174;28;20032;-52
2021/10/22 01:10:26;;;;;;;6.28;4.88;;;16.70;99.40;;;;;;5074856;28;20024;-52
2021/10/22 01:12:53;;;;;;;8.20;5.28;;;16.60;99.10;;;;;;5073952;28;20856;-52
2021/10/22 01:15:19;;;;;;;11.98;5.10;;;16.50;99.20;;;;;;5071620;28;20384;-52
2021/10/22 01:17:47;;;;;;;7.18;4.97;;;16.50;99.20;;;;;;5075664;28;20020;-52
2021/10/22 01:20:20;;;;;;;8.75;5.88;;;16.50;99.60;;;;;;5074418;28;20090;-52
2021/10/22 01:22:49;;;;;;;7.78;5.70;;;16.60;99.60;;;;;;5074985;28;20124;-50
2021/10/22 01:25:17;;;;;;;7.75;5.90;;;16.60;99.50;;;;;;5074661;28;20040;-52
2021/10/22 01:27:44;;;;;;;8.63;6.40;;;16.50;99.50;;;;;;5076718;28;20040;-50
2021/10/22 01:30:13;;;;;;;8.85;5.97;;;16.60;99.90;;;;;;5073987;28;20039;-52
2021/10/22 01:32:39;;;;;;;8.95;6.18;;;16.70;99.80;;;;;;5049264;28;20037;-50
2021/10/22 01:35:07;;;;;;;17.35;6.38;;;16.80;99.90;;;;;;5018913;28;20044;-53
2021/10/22 01:37:33;;;;;;;14.60;7.40;;;16.90;99.90;;;;;;5014966;28;20572;-51
2021/10/22 01:39:59;;;;;;;16.48;7.25;;;17.00;99.90;;;;;;5016088;28;20029;-51
2021/10/22 01:42:25;;;;;;;10.10;7.65;;;16.90;99.90;;;;;;5028231;28;20037;-51
2021/10/22 01:44:51;;;;;;;21.73;10.70;;;16.90;99.90;;;;;;5013350;28;20064;-51
2021/10/22 01:47:21;;;;;;;41.15;24.88;;;16.90;99.90;;;;;;5033018;28;20038;-52
2021/10/22 01:49:47;;;;;;;32.15;20.67;;;16.90;99.90;;;;;;5032968;28;20037;-53
2021/10/22 01:52:13;;;;;;;25.98;20.58;;;16.90;99.90;;;;;;5027251;28;20045;-50
2021/10/22 01:54:39;;;;;;;18.83;15.20;;;16.90;99.90;;;;;;5033480;28;20065;-51
2021/10/22 01:57:06;;;;;;;12.52;9.70;;;16.80;99.90;;;;;;5032738;28;20064;-52
2021/10/22 01:59:33;;;;;;;11.00;8.75;;;16.70;99.90;;;;;;5032252;28;20041;-52
2021/10/22 02:01:58;;;;;;;16.95;10.30;;;16.70;99.90;;;;;;5002949;28;20049;-51
2021/10/22 02:04:24;;;;;;;12.40;8.68;;;16.70;99.90;;;;;;5052249;28;20435;-50
2021/10/22 02:06:50;;;;;;;11.32;8.88;;;16.80;99.90;;;;;;5051865;28;20486;-50
2021/10/22 02:09:18;;;;;;;11.43;9.27;;;16.90;99.90;;;;;;5035077;28;20422;-52
2021/10/22 02:11:45;;;;;;;12.55;9.43;;;16.90;99.90;;;;;;5053599;28;20464;-53
2021/10/22 02:14:11;;;;;;;14.60;10.85;;;16.70;99.90;;;;;;5040371;28;20071;-51
2021/10/22 02:16:37;;;;;;;15.63;11.70;;;16.30;99.90;;;;;;5073110;28;20449;-52
2021/10/22 02:19:03;;;;;;;18.10;13.90;;;16.10;99.90;;;;;;5051035;28;20103;-51
2021/10/22 02:21:29;;;;;;;19.85;14.32;;;16.10;99.90;;;;;;5054830;28;20547;-51
2021/10/22 02:23:55;;;;;;;19.73;12.95;;;15.90;99.90;;;;;;5069844;28;20040;-52
2021/10/22 02:26:21;;;;;;;19.70;14.20;;;15.90;99.90;;;;;;5068589;28;20029;-52
2021/10/22 02:28:47;;;;;;;18.38;13.18;;;15.90;99.90;;;;;;5070880;28;20479;-53
2021/10/22 02:31:13;;;;;;;18.88;13.85;;;15.90;99.90;;;;;;5071116;28;20040;-52
2021/10/22 02:33:39;;;;;;;17.98;13.20;;;16.10;99.90;;;;;;5073142;28;20020;-50
2021/10/22 02:36:05;;;;;;;18.88;13.30;;;16.20;99.90;;;;;;5053182;28;20043;-53
2021/10/22 02:38:31;;;;;;;19.27;13.10;;;16.10;99.90;;;;;;5071803;28;20020;-52
2021/10/22 02:40:57;;;;;;;18.58;12.65;;;16.20;99.90;;;;;;5072063;28;20486;-51
2021/10/22 02:43:22;;;;;;;28.65;18.20;;;16.30;99.90;;;;;;5072515;28;20111;-53
2021/10/22 02:45:48;;;;;;;39.28;26.00;;;16.20;99.90;;;;;;5072925;28;20025;-51
2021/10/22 02:48:14;;;;;;;37.40;22.80;;;16.10;99.90;;;;;;5072511;28;20028;-51
2021/10/22 02:50:40;;;;;;;29.08;17.65;;;16.20;99.90;;;;;;5068870;28;20029;-53
2021/10/22 02:53:06;;;;;;;21.42;14.30;;;16.00;99.90;;;;;;5072776;28;20096;-52
2021/10/22 02:55:32;;;;;;;21.55;13.88;;;15.90;99.90;;;;;;5072560;28;20033;-51
2021/10/22 02:57:57;;;;;;;20.90;13.70;;;15.90;99.90;;;;;;5069972;28;20073;-51
2021/10/22 03:00:23;;;;;;;25.15;13.30;;;16.10;99.90;;;;;;5072220;28;20031;-53
2021/10/22 03:02:49;;;;;;;22.63;16.10;;;16.10;99.90;;;;;;5071871;28;20078;-51
2021/10/22 03:05:15;;;;;;;25.25;17.23;;;16.10;99.90;;;;;;5071596;28;20052;-51
2021/10/22 03:07:41;;;;;;;26.33;17.45;;;16.30;99.90;;;;;;5073122;28;20051;-51
2021/10/22 03:10:08;;;;;;;22.63;16.20;;;16.30;99.90;;;;;;5072705;28;20064;-52
2021/10/22 03:12:38;;;;;;;21.25;14.82;;;16.40;99.90;;;;;;5072085;28;20548;-53
2021/10/22 03:15:06;;;;;;;21.08;14.90;;;16.30;99.90;;;;;;5085124;28;20052;-52
2021/10/22 03:17:32;;;;;;;18.55;12.82;;;16.30;99.90;;;;;;5054171;28;20067;-50
2021/10/22 03:19:58;;;;;;;19.35;13.02;;;16.30;99.90;;;;;;5050460;28;20040;-51
2021/10/22 03:22:24;;;;;;;19.42;12.88;;;16.10;99.90;;;;;;5073168;28;20127;-49
2021/10/22 03:24:51;;;;;;;21.58;13.82;;;16.00;99.90;;;;;;5072194;28;20104;-50
2021/10/22 03:27:19;;;;;;;20.73;14.35;;;15.90;99.90;;;;;;5072434;28;20017;-49
2021/10/22 03:29:45;;;;;;;23.02;13.75;;;15.90;99.90;;;;;;5035818;28;20033;-51
2021/10/22 03:32:11;;;;;;;17.70;12.43;;;15.90;99.90;;;;;;5029181;28;20481;-52
2021/10/22 03:34:37;;;;;;;15.15;11.93;;;15.90;99.90;;;;;;5071970;28;20052;-49
2021/10/22 03:37:03;;;;;;;19.88;13.18;;;15.90;99.90;;;;;;5073214;28;20468;-51
2021/10/22 03:39:28;;;;;;;18.92;12.65;;;15.90;99.90;;;;;;5072173;28;20044;-50
2021/10/22 03:41:54;;;;;;;18.25;11.73;;;15.80;99.90;;;;;;5071582;28;20472;-50
2021/10/22 03:44:20;;;;;;;15.63;11.00;;;15.70;99.90;;;;;;5068432;28;20020;-51
2021/10/22 03:46:46;;;;;;;16.85;11.32;;;15.60;99.90;;;;;;5072720;28;20025;-51
2021/10/22 03:49:12;;;;;;;18.27;10.07;;;15.40;99.90;;;;;;5066993;28;20169;-51
2021/10/22 03:51:38;;;;;;;13.82;10.10;;;15.30;99.90;;;;;;5072651;28;20051;-51
2021/10/22 03:54:03;;;;;;;20.65;11.55;;;15.30;99.90;;;;;;5072426;28;20448;-52
2021/10/22 03:56:29;;;;;;;16.85;11.82;;;15.40;99.90;;;;;;5071691;28;20027;-50
2021/10/22 03:58:56;;;;;;;15.23;10.98;;;15.50;99.90;;;;;;5072493;28;20107;-51
2021/10/22 04:01:22;;;;;;;18.77;12.85;;;15.70;99.90;;;;;;5070412;28;20368;-52
2021/10/22 04:03:48;;;;;;;20.77;13.88;;;15.70;99.90;;;;;;5070177;28;20036;-52
2021/10/22 04:06:14;;;;;;;25.02;14.27;;;15.80;99.90;;;;;;5072137;28;20054;-51
2021/10/22 04:08:40;;;;;;;19.92;13.50;;;15.80;99.90;;;;;;5036398;28;20032;-51
2021/10/22 04:11:06;;;;;;;18.23;14.13;;;15.80;99.90;;;;;;5071281;28;20440;-52
2021/10/22 04:13:32;;;;;;;22.88;14.02;;;15.80;99.90;;;;;;5071481;28;20052;-52
2021/10/22 04:15:58;;;;;;;16.92;12.60;;;15.80;99.90;;;;;;5069062;28;20051;-51
2021/10/22 04:18:25;;;;;;;16.58;11.95;;;15.90;99.90;;;;;;5071210;28;20059;-50
2021/10/22 04:20:51;;;;;;;17.05;11.30;;;15.90;99.90;;;;;;5072273;28;20551;-52
2021/10/22 04:23:17;;;;;;;17.83;11.88;;;16.00;99.90;;;;;;5053451;28;20139;-49
2021/10/22 04:25:42;;;;;;;19.20;12.05;;;16.10;99.90;;;;;;5068276;28;20052;-49
2021/10/22 04:28:09;;;;;;;18.70;12.98;;;16.20;99.90;;;;;;5068787;28;20055;-50
2021/10/22 04:30:36;;;;;;;16.00;11.15;;;16.20;99.90;;;;;;5068792;28;20091;-51
2021/10/22 04:33:03;;;;;;;13.73;11.18;;;16.20;99.90;;;;;;5069347;28;20401;-51
2021/10/22 04:35:30;;;;;;;17.65;12.63;;;16.10;99.90;;;;;;5065321;28;20017;-50
2021/10/22 04:40:33;;;;;;;15.95;11.50;;;16.00;99.90;;;;;;5067360;28;20039;-53
2021/10/22 04:43:02;;;;;;;18.52;11.43;;;16.00;99.90;;;;;;5070014;28;20115;-50
2021/10/22 04:45:28;;;;;;;21.25;12.60;;;16.10;99.90;;;;;;5030655;28;20047;-51
2021/10/22 04:47:53;;;;;;;24.45;13.07;;;16.20;99.90;;;;;;5067102;28;20031;-50
2021/10/22 04:50:19;;;;;;;19.85;14.13;;;16.30;99.90;;;;;;5063872;28;20474;-51
2021/10/22 04:52:45;;;;;;;29.40;19.58;;;16.30;99.90;;;;;;5068639;28;20041;-52
2021/10/22 04:55:11;;;;;;;26.65;17.83;;;16.20;99.90;;;;;;5068379;28;20037;-51
2021/10/22 04:57:37;;;;;;;25.60;18.13;;;16.10;99.90;;;;;;5039667;28;20051;-51
2021/10/22 05:00:05;;;;;;;27.85;20.88;;;16.00;99.90;;;;;;5067412;28;20036;-50
2021/10/22 05:02:31;;;;;;;27.67;21.33;;;16.00;99.90;;;;;;5063150;28;20082;-54
2021/10/22 05:04:57;;;;;;;25.25;21.60;;;16.00;99.90;;;;;;5053864;28;20123;-52
2021/10/22 05:07:23;;;;;;;33.97;23.48;;;16.00;99.90;;;;;;5067962;28;20469;-54
2021/10/22 05:09:49;;;;;;;28.08;22.35;;;16.00;99.90;;;;;;5050169;28;20094;-52
2021/10/22 05:12:15;;;;;;;32.47;21.90;;;16.10;99.90;;;;;;5068790;28;20032;-51
2021/10/22 05:14:40;;;;;;;34.45;22.75;;;16.10;99.90;;;;;;5056535;28;20102;-51
2021/10/22 05:17:06;;;;;;;33.58;22.90;;;16.20;99.90;;;;;;5065936;28;20033;-51
2021/10/22 05:19:32;;;;;;;31.55;23.63;;;16.20;99.90;;;;;;5065967;28;20032;-51
2021/10/22 05:21:59;;;;;;;33.22;22.67;;;16.30;99.90;;;;;;5031528;28;20040;-51
2021/10/22 05:24:24;;;;;;;34.30;25.60;;;16.20;99.90;;;;;;5046985;28;20029;-52
2021/10/22 05:26:51;;;;;;;40.28;27.95;;;16.10;99.90;;;;;;5046305;28;20086;-51
2021/10/22 05:29:17;;;;;;;44.97;28.17;;;16.00;99.90;;;;;;5054902;28;20076;-52
2021/10/22 05:31:43;;;;;;;36.78;27.52;;;16.00;99.90;;;;;;5053440;28;20066;-52
2021/10/22 05:34:09;;;;;;;42.28;27.65;;;16.00;99.90;;;;;;5054163;28;20075;-51
2021/10/22 05:36:35;;;;;;;32.42;23.92;;;16.00;99.90;;;;;;5049612;28;20036;-51
2021/10/22 05:39:01;;;;;;;33.47;24.92;;;15.90;99.90;;;;;;5053307;28;20459;-51
2021/10/22 05:41:26;;;;;;;35.03;25.92;;;15.80;99.90;;;;;;5049831;28;20112;-52
2021/10/22 05:43:52;;;;;;;35.20;26.45;;;15.90;99.90;;;;;;5054421;28;20025;-52
2021/10/22 05:46:18;;;;;;;37.60;27.20;;;15.90;99.90;;;;;;5066864;28;20037;-52
2021/10/22 05:48:47;;;;;;;38.88;28.30;;;15.90;99.90;;;;;;5053366;28;20032;-51
2021/10/22 05:51:14;;;;;;;43.70;27.67;;;16.10;99.90;;;;;;5051814;28;20392;-51
2021/10/22 05:53:40;;;;;;;35.30;26.40;;;16.00;99.90;;;;;;5052748;28;20496;-52
2021/10/22 05:56:09;;;;;;;30.25;24.58;;;16.10;99.90;;;;;;5051753;28;20071;-52
2021/10/22 05:58:35;;;;;;;31.55;24.67;;;16.10;99.90;;;;;;5053927;28;20064;-52
2021/10/22 06:01:04;;;;;;;34.47;24.98;;;16.10;99.90;;;;;;5053409;28;20071;-51
2021/10/22 06:03:30;;;;;;;32.15;24.52;;;16.10;99.90;;;;;;5053491;28;20496;-51
2021/10/22 06:05:57;;;;;;;35.58;24.30;;;16.20;99.90;;;;;;5064221;28;20041;-52
2021/10/22 06:08:23;;;;;;;36.70;26.05;;;16.20;99.90;;;;;;5072153;28;20040;-52
2021/10/22 06:10:49;;;;;;;29.13;22.90;;;16.10;99.90;;;;;;5072647;28;20089;-51
2021/10/22 06:13:15;;;;;;;31.70;23.25;;;16.20;99.90;;;;;;5072240;28;20016;-52
2021/10/22 06:15:41;;;;;;;29.42;21.48;;;16.20;99.90;;;;;;5071636;28;20056;-52
2021/10/22 06:18:07;;;;;;;31.17;23.02;;;16.10;99.90;;;;;;5072284;28;20067;-52
2021/10/22 06:25:39;;;;;;;23.67;18.67;;;16.10;99.90;;;;;;5074050;28;20059;-51
2021/10/22 06:28:05;;;;;;;24.20;16.50;;;15.90;99.90;;;;;;5052605;28;20040;-51
2021/10/22 06:30:34;;;;;;;20.30;15.32;;;15.90;99.90;;;;;;5075728;28;20165;-51
2021/10/22 06:33:00;;;;;;;17.42;13.18;;;15.90;99.90;;;;;;5071647;28;20534;-52
2021/10/22 06:35:26;;;;;;;19.98;14.32;;;15.90;99.90;;;;;;5073352;28;20081;-50
2021/10/22 06:37:54;;;;;;;20.88;13.00;;;16.00;99.90;;;;;;5071735;28;20032;-53
2021/10/22 06:40:21;;;;;;;16.48;11.30;;;16.10;99.90;;;;;;5074319;28;20771;-50
2021/10/22 06:42:47;;;;;;;14.73;12.00;;;16.00;99.90;;;;;;5073335;28;20040;-51
2021/10/22 06:45:13;;;;;;;16.35;11.65;;;16.10;99.90;;;;;;5072929;28;20037;-51
2021/10/22 06:47:39;;;;;;;13.82;10.30;;;16.10;99.90;;;;;;5073461;28;20159;-50
2021/10/22 06:50:06;;;;;;;15.00;11.10;;;15.90;99.90;;;;;;5073562;28;20023;-53
2021/10/22 06:52:32;;;;;;;17.92;14.30;;;15.80;99.90;;;;;;5074183;28;20024;-51
2021/10/22 06:54:58;;;;;;;14.85;11.07;;;15.70;99.90;;;;;;5072864;28;20028;-51
2021/10/22 06:57:24;;;;;;;16.83;10.55;;;15.50;99.90;;;;;;5073433;28;20103;-51
2021/10/22 06:59:50;;;;;;;10.82;8.27;;;15.50;99.90;;;;;;5073334;28;20031;-51
2021/10/22 07:02:16;;;;;;;10.48;8.43;;;15.40;99.90;;;;;;5072790;28;20025;-51
2021/10/22 07:04:50;;;;;;;11.60;8.85;;;15.50;99.90;;;;;;5072589;28;20024;-52
2021/10/22 07:07:16;;;;;;;12.35;8.82;;;15.30;99.90;;;;;;5086701;28;20052;-52
2021/10/22 07:09:46;;;;;;;11.50;8.63;;;15.40;99.90;;;;;;5073363;28;20468;-52
2021/10/22 07:12:13;;;;;;;10.70;8.07;;;15.50;99.90;;;;;;5073185;28;20025;-52
2021/10/22 07:14:48;;;;;;;11.70;8.82;;;15.50;99.90;;;;;;5073127;28;20439;-51
2021/10/22 07:17:15;;;;;;;12.50;8.73;;;15.50;99.90;;;;;;5069705;28;20230;-51
2021/10/22 07:19:41;;;;;;;14.23;9.73;;;15.40;99.90;;;;;;5070842;28;20040;-51
2021/10/22 07:22:13;;;;;;;15.18;10.20;;;15.50;99.90;;;;;;5069712;28;20056;-51
2021/10/22 07:24:39;;;;;;;14.48;9.90;;;15.60;99.90;;;;;;5050656;28;20070;-51
2021/10/22 07:27:05;;;;;;;14.13;9.63;;;15.60;99.90;;;;;;5071300;28;20043;-52
2021/10/22 07:29:31;;;;;;;11.32;8.15;;;15.60;99.90;;;;;;5071586;28;20020;-52
2021/10/22 07:31:57;;;;;;;12.63;9.35;;;15.60;99.90;;;;;;5069944;28;20028;-51
2021/10/22 07:34:23;;;;;;;12.00;8.77;;;15.50;99.90;;;;;;5069228;28;20115;-53
2021/10/22 07:36:51;;;;;;;13.18;8.68;;;15.40;99.90;;;;;;5069089;28;20032;-53
2021/10/22 07:39:18;;;;;;;13.82;9.07;;;15.50;99.90;;;;;;5050609;28;20388;-52
2021/10/22 07:41:44;;;;;;;13.05;9.02;;;15.60;99.90;;;;;;5071059;28;20491;-54
2021/10/22 07:44:11;;;;;;;11.10;8.45;;;15.60;99.90;;;;;;5051768;28;20045;-53
2021/10/22 07:46:42;;;;;;;12.57;7.65;;;15.70;99.90;;;;;;5047978;28;20123;-52
2021/10/22 07:49:09;;;;;;;10.93;7.97;;;15.60;99.90;;;;;;5049962;28;20496;-54
2021/10/22 07:51:35;;;;;;;14.13;8.82;;;15.80;99.90;;;;;;5043644;28;20041;-49
2021/10/22 07:54:01;;;;;;;13.18;8.95;;;16.00;99.90;;;;;;5015489;28;20036;-52
2021/10/22 07:56:27;;;;;;;11.73;7.40;;;16.20;99.90;;;;;;5049149;28;20045;-53
2021/10/22 07:58:53;;;;;;;10.27;7.10;;;16.00;99.90;;;;;;5048294;28;20017;-48
2021/10/22 08:01:20;;;;;;;11.30;7.88;;;16.10;99.90;;;;;;5047329;28;20082;-52
2021/10/22 08:03:47;;;;;;;9.68;5.82;;;16.10;99.90;;;;;;5015673;28;20033;-53
2021/10/22 08:06:14;;;;;;;9.50;4.80;;;16.30;99.90;;;;;;5031924;28;20067;-52
2021/10/22 08:08:46;;;;;;;7.38;5.28;;;16.30;99.90;;;;;;5055568;28;20029;-52
2021/10/22 08:11:17;;;;;;;7.28;4.88;;;16.40;99.90;;;;;;5014677;28;20458;-53
2021/10/22 08:13:44;;;;;;;6.50;4.63;;;16.50;99.90;;;;;;5030107;28;20033;-52
2021/10/22 08:16:11;;;;;;;6.10;4.45;;;16.30;99.90;;;;;;5045659;28;20044;-52
2021/10/22 08:18:38;;;;;;;6.85;4.13;;;16.10;99.90;;;;;;5069975;28;20036;-48
2021/10/22 08:21:18;;;;;;;5.32;4.07;;;16.10;99.90;;;;;;5071754;28;20039;-54
2021/10/22 08:23:46;;;;;;;9.27;4.60;;;16.00;99.90;;;;;;5067048;28;20089;-53
2021/10/22 08:26:13;;;;;;;7.00;5.20;;;15.90;99.90;;;;;;5071077;28;20023;-52
2021/10/22 08:28:38;;;;;;;8.25;4.78;;;16.10;99.90;;;;;;5071812;28;20021;-52
2021/10/22 08:31:06;;;;;;;7.30;4.82;;;16.30;99.90;;;;;;5069965;28;20401;-52
2021/10/22 08:33:32;;;;;;;6.45;4.50;;;16.40;99.90;;;;;;5072348;28;20036;-49
2021/10/22 08:35:59;;;;;;;5.90;4.57;;;16.50;99.90;;;;;;5052408;28;20040;-53
2021/10/22 08:38:26;;;;;;;10.23;5.68;;;16.50;99.90;;;;;;5052646;28;20047;-54
2021/10/22 08:40:57;;;;;;;6.40;4.40;;;16.40;99.90;;;;;;5068802;28;20105;-50
2021/10/22 08:43:25;;;;;;;11.50;5.90;;;16.30;99.90;;;;;;5070814;28;20120;-55
2021/10/22 08:46:00;;;;;;;9.63;5.72;;;16.30;99.90;;;;;;5071803;28;20376;-54
2021/10/22 08:48:27;;;;;;;9.05;5.40;;;16.10;99.90;;;;;;5071728;28;20028;-49
2021/10/22 08:50:53;;;;;;;8.20;5.20;;;16.00;99.90;;;;;;5052531;28;20033;-52
2021/10/22 08:53:20;;;;;;;7.70;4.60;;;15.90;99.90;;;;;;5071832;28;20078;-52
2021/10/22 08:55:46;;;;;;;7.93;4.90;;;15.90;99.90;;;;;;5069379;28;20060;-50
2021/10/22 08:58:12;;;;;;;8.57;4.85;;;16.00;99.90;;;;;;5052425;28;20071;-54
2021/10/22 09:00:38;;;;;;;7.45;5.10;;;15.90;99.90;;;;;;5068839;28;20380;-54
2021/10/22 09:03:15;;;;;;;7.30;4.55;;;16.00;99.90;;;;;;5038860;28;20044;-50
2021/10/22 09:06:04;;;;;;;8.23;5.90;;;15.90;99.90;;;;;;5071546;28;20044;-53
2021/10/22 09:08:38;;;;;;;8.90;5.00;;;15.80;99.90;;;;;;5071950;28;20496;-51
2021/10/22 09:11:06;;;;;;;10.68;7.00;;;15.70;99.90;;;;;;5074287;28;20999;-53
2021/10/22 09:13:36;;;;;;;7.38;4.90;;;15.70;99.90;;;;;;5074259;28;20473;-50
2021/10/22 09:16:22;;;;;;;7.22;5.45;;;15.80;99.90;;;;;;5074620;28;20031;-53
2021/10/22 09:18:49;;;;;;;9.13;5.28;;;15.90;99.90;;;;;;5071534;28;20125;-52
2021/10/22 09:21:25;;;;;;;6.45;4.75;;;15.90;99.90;;;;;;5071790;28;20167;-48
2021/10/22 09:23:53;;;;;;;12.80;5.72;;;15.90;99.90;;;;;;5072563;28;20414;-52
2021/10/22 09:26:24;;;;;;;8.30;5.53;;;16.00;99.90;;;;;;5073287;28;20129;-51
2021/10/22 09:28:51;;;;;;;9.02;4.78;;;16.00;99.90;;;;;;5070527;28;20029;-51
2021/10/22 09:31:18;;;;;;;8.02;5.18;;;16.10;99.90;;;;;;5072506;28;20404;-51
2021/10/22 09:33:56;;;;;;;7.47;5.43;;;16.30;99.90;;;;;;5054827;28;20036;-51
2021/10/22 09:36:37;;;;;;;7.10;5.38;;;16.20;99.90;;;;;;5073042;28;20033;-51
2021/10/22 09:39:05;;;;;;;13.13;5.22;;;16.30;99.90;;;;;;5072657;28;20029;-51
2021/10/22 09:41:33;;;;;;;8.98;4.90;;;16.40;99.90;;;;;;5073690;28;20468;-52
2021/10/22 09:44:00;;;;;;;7.57;4.35;;;16.50;99.90;;;;;;5072690;28;20032;-50
2021/10/22 09:46:30;;;;;;;6.38;4.45;;;16.60;99.90;;;;;;5068142;28;20024;-51
2021/10/22 09:49:01;;;;;;;6.85;4.80;;;16.60;99.90;;;;;;5073460;28;20036;-52
2021/10/22 09:51:28;;;;;;;11.88;4.78;;;16.60;99.90;;;;;;5072000;28;20028;-51
2021/10/22 09:54:09;;;;;;;7.35;4.75;;;16.70;99.90;;;;;;5074038;28;20044;-51
2021/10/22 09:56:35;;;;;;;7.15;4.07;;;16.60;99.90;;;;;;5072370;28;20060;-50
2021/10/22 09:59:03;;;;;;;6.28;4.95;;;16.80;99.90;;;;;;5038586;28;20028;-51
2021/10/22 10:01:40;;;;;;;7.95;4.55;;;16.70;99.90;;;;;;5073955;28;20028;-51
2021/10/22 10:04:07;;;;;;;6.35;4.95;;;17.00;99.90;;;;;;5074324;28;20480;-51
2021/10/22 10:06:37;;;;;;;7.10;4.63;;;17.50;99.90;;;;;;5070833;28;20484;-51
2021/10/22 10:09:06;;;;;;;9.32;5.78;;;17.60;99.90;;;;;;5054345;28;20134;-51
2021/10/22 10:11:32;;;;;;;5.95;4.38;;;18.00;99.90;;;;;;5074787;28;20062;-51
2021/10/22 10:14:00;;;;;;;9.30;6.03;;;18.10;99.90;;;;;;5046192;28;20492;-52
2021/10/22 10:16:29;;;;;;;6.70;4.10;;;18.10;99.90;;;;;;5045993;28;20042;-51
2021/10/22 10:19:03;;;;;;;6.22;4.70;;;17.90;99.90;;;;;;5050531;28;20041;-51
2021/10/22 10:21:33;;;;;;;7.28;5.05;;;17.70;99.90;;;;;;5042841;28;20854;-53
2021/10/22 10:23:59;;;;;;;8.63;5.72;;;17.50;99.90;;;;;;5041543;28;20095;-51
2021/10/22 10:26:30;;;;;;;7.78;5.38;;;17.30;99.90;;;;;;5042383;28;20541;-51
2021/10/22 10:28:59;;;;;;;7.40;4.85;;;17.40;99.90;;;;;;5030286;28;20037;-51
2021/10/22 10:31:35;;;;;;;7.72;5.18;;;17.40;99.90;;;;;;5045192;28;20039;-52
2021/10/22 10:34:22;;;;;;;7.82;5.50;;;17.30;99.90;;;;;;5045993;28;20038;-51
2021/10/22 10:36:52;;;;;;;7.95;4.68;;;17.20;99.90;;;;;;5061438;28;20041;-51
2021/10/22 10:39:43;;;;;;;7.22;4.18;;;17.00;99.90;;;;;;5066538;28;20045;-51
2021/10/22 10:42:28;;;;;;;8.80;4.43;;;17.20;99.90;;;;;;5054050;28;20040;-51
2021/10/22 10:44:57;;;;;;;8.48;4.88;;;17.30;99.90;;;;;;5063392;28;20429;-51
2021/10/22 10:47:29;;;;;;;5.78;4.57;;;17.30;99.90;;;;;;5110742;28;20109;-51
2021/10/22 10:49:54;;;;;;;7.07;5.22;;;17.30;99.90;;;;;;5112528;28;20027;-51
2021/10/22 10:52:39;;;;;;;10.15;4.88;;;17.40;99.90;;;;;;5111692;28;20042;-51
2021/10/22 10:55:43;;;;;;;6.75;4.10;;;17.50;99.90;;;;;;5108532;28;20035;-51
2021/10/22 10:58:09;;;;;;;7.45;5.20;;;17.50;99.90;;;;;;5076657;28;20039;-50
2021/10/22 11:00:56;;;;;;;9.68;4.78;;;17.60;99.90;;;;;;5111367;28;20073;-50
2021/10/22 11:03:41;;;;;;;9.77;4.90;;;17.80;99.90;;;;;;5109518;28;20051;-50
2021/10/22 11:06:07;;;;;;;8.25;4.63;;;18.10;99.90;;;;;;5109699;28;20192;-50
2021/10/22 11:08:33;;;;;;;10.80;5.85;;;18.40;99.90;;;;;;5078800;28;20039;-50
2021/10/22 11:11:10;;;;;;;7.15;5.43;;;18.50;99.90;;;;;;5072253;28;20028;-52
2021/10/22 11:13:45;;;;;;;11.90;6.40;;;18.60;99.90;;;;;;5072838;28;20024;-51
2021/10/22 11:16:37;;;;;;;9.55;5.20;;;19.00;99.90;;;;;;5072712;28;20070;-51
2021/10/22 11:19:09;;;;;;;11.05;6.20;;;19.40;99.90;;;;;;5065996;28;20029;-50
2021/10/22 11:21:59;;;;;;;8.13;5.88;;;19.60;99.90;;;;;;5072731;28;20056;-52
2021/10/22 11:24:31;;;;;;;10.63;6.88;;;19.40;99.90;;;;;;5072145;28;20032;-52
2021/10/22 11:40:07;;;;;;;9.27;5.75;;;19.50;99.90;;;;;;5153180;27;20382;-51
2021/10/22 11:42:35;;;;;;;10.70;7.95;;;18.90;99.90;;;;;;5112184;27;20046;-50
2021/10/22 11:45:16;;;;;;;8.27;6.43;;;19.00;99.90;;;;;;5100213;27;20043;-52
2021/10/22 11:47:50;;;;;;;12.10;6.82;;;18.90;99.90;;;;;;5095084;28;20055;-51
2021/10/22 11:50:22;;;;;;;15.18;10.73;;;19.00;99.90;;;;;;5096001;28;20047;-51
2021/10/22 11:53:14;;;;;;;12.15;7.55;;;18.90;99.90;;;;;;5089404;28;20043;-54
2021/10/22 11:55:43;;;;;;;13.15;8.82;;;18.90;99.90;;;;;;5083842;28;20418;-51
2021/10/22 11:58:10;;;;;;;11.70;7.40;;;18.70;99.90;;;;;;5092558;28;20037;-51
2021/10/22 12:00:56;;;;;;;11.32;8.32;;;19.00;99.90;;;;;;5085462;28;20028;-51
2021/10/22 12:03:42;;;;;;;12.43;8.35;;;19.00;99.90;;;;;;5088616;28;20036;-51
2021/10/22 12:06:34;;;;;;;9.88;6.57;;;18.80;99.90;;;;;;5081475;28;20158;-54
2021/10/22 12:09:01;;;;;;;11.57;6.70;;;18.60;99.90;;;;;;5048716;28;20603;-56
2021/10/22 12:11:29;;;;;;;9.45;7.00;;;18.40;99.90;;;;;;5067075;28;20430;-55
2021/10/22 12:13:54;;;;;;;8.73;6.57;;;18.40;99.90;;;;;;5085839;28;20052;-57
2021/10/22 12:16:26;;;;;;;11.23;7.10;;;18.40;99.90;;;;;;5081192;28;20047;-52
2021/10/22 12:18:58;;;;;;;10.60;7.82;;;18.30;99.90;;;;;;5117431;27;20035;-55
2021/10/22 12:21:29;;;;;;;9.43;7.10;;;18.30;99.90;;;;;;5148199;27;20035;-53
2021/10/22 12:24:01;;;;;;;10.43;7.15;;;18.10;99.90;;;;;;5133898;27;20039;-51
2021/10/22 12:26:29;;;;;;;12.77;8.75;;;18.10;99.90;;;;;;5151704;27;20043;-53
2021/10/22 12:29:13;;;;;;;13.73;8.75;;;18.20;99.90;;;;;;5113204;27;20490;-52
2021/10/22 12:31:53;;;;;;;11.73;7.38;;;18.20;99.90;;;;;;5096316;28;20045;-57
2021/10/22 12:34:32;;;;;;;13.85;7.97;;;18.10;99.90;;;;;;5148126;27;20034;-53
2021/10/22 12:37:14;;;;;;;10.23;7.55;;;18.00;99.90;;;;;;5141256;27;20404;-53
2021/10/22 12:39:45;;;;;;;;;;;18.20;99.90;;;;;;5077109;28;20051;-53
2021/10/22 12:42:23;;;;;;;12.43;8.85;;;18.20;99.90;;;;;;5106807;27;20366;-54
2021/10/22 12:44:48;;;;;;;11.75;7.90;;;18.20;99.90;;;;;;5107597;27;20470;-58
2021/10/22 12:47:14;;;;;;;15.13;8.68;;;18.10;99.90;;;;;;5105821;27;20028;-52
2021/10/22 12:49:41;;;;;;;12.35;8.45;;;18.00;99.90;;;;;;5039659;28;20110;-51
2021/10/22 12:52:06;;;;;;;14.82;9.48;;;18.10;99.90;;;;;;5082178;28;20047;-56
2021/10/22 12:54:46;;;;;;;11.27;9.13;;;18.20;99.90;;;;;;5108543;27;20521;-53
2021/10/22 12:57:24;;;;;;;15.30;9.25;;;18.40;99.90;;;;;;5115984;27;20050;-54
2021/10/22 12:59:55;;;;;;;14.20;8.75;;;18.20;99.90;;;;;;5107213;27;20088;-49
2021/10/22 13:02:32;;;;;;;14.07;9.20;;;18.30;99.90;;;;;;5054644;28;20066;-51
2021/10/22 13:05:17;;;;;;;12.02;9.30;;;18.30;99.90;;;;;;5110178;27;20063;-48